Terminal Aerodrome Forecast
Issued by NWS

Home | Current Version | Previous Version | Text Only | Print | Product List | Glossary On
Versions: 1 2 3 4 5 6 7 8 9 10 11 12 13 14 15 16 17 18 19 20 21 22 23
000
FTUS43 KDVN 221100
TAFCID
TAF
KCID 221120Z 2212/2312 35014KT P6SM SKC
     FM221500 35014G20KT P6SM SKC
     FM222200 34008KT P6SM SCT250
     FM230700 07006KT P6SM SCT120 BKN250=

USA.gov is the U.S. government's official web portal to all federal, state and local government web resources and services.